Time;durP1;ratioP1;P1;durP2;ratioP2;P2;SDS_P1;SDS_P2;PMS_P1;PMS_P2;Temp;Humidity;BMP_temperature;BMP_pressure;BME280_temperature;BME280_humidity;BME280_pressure;Samples;Min_cycle;Max_cycle;Signal;HPM_P1;HPM_P2
2021/11/22 00:01:26;;;;;;;26.35;12.50;;;;;;;;;;4971764;28;20376;-59
2021/11/22 00:03:51;;;;;;;26.00;12.25;;;;;;;;;;4974353;28;20120;-59
2021/11/22 00:06:16;;;;;;;26.98;11.85;;;;;;;;;;4979412;28;20596;-59
2021/11/22 00:08:42;;;;;;;26.58;12.57;;;;;;;;;;4970789;28;20399;-60
2021/11/22 00:11:07;;;;;;;23.08;11.35;;;;;;;;;;4970659;28;20422;-59
2021/11/22 00:13:33;;;;;;;26.70;12.73;;;;;;;;;;4971203;28;20345;-59
2021/11/22 00:15:58;;;;;;;26.50;12.52;;;;;;;;;;4970782;28;20534;-60
2021/11/22 00:18:24;;;;;;;24.52;10.68;;;;;;;;;;4971305;28;20432;-60
2021/11/22 00:20:50;;;;;;;24.00;11.52;;;;;;;;;;4971865;28;20659;-59
2021/11/22 00:23:15;;;;;;;23.75;11.02;;;;;;;;;;4971752;28;20566;-60
2021/11/22 00:25:41;;;;;;;22.42;11.07;;;;;;;;;;4971216;28;20455;-60
2021/11/22 00:28:06;;;;;;;24.08;10.85;;;;;;;;;;4970709;28;20463;-59
2021/11/22 00:30:31;;;;;;;25.17;11.30;;;;;;;;;;4971201;28;20436;-60
2021/11/22 00:32:59;;;;;;;24.88;11.95;;;;;;;;;;4971363;28;20470;-61
2021/11/22 00:35:32;;;;;;;22.63;11.27;;;;;;;;;;4970530;28;20388;-60
2021/11/22 00:37:57;;;;;;;23.95;10.82;;;;;;;;;;4970634;28;20456;-59
2021/11/22 00:40:23;;;;;;;23.58;11.82;;;;;;;;;;4971246;28;20440;-60
2021/11/22 00:42:48;;;;;;;19.25;10.20;;;;;;;;;;4970309;28;20456;-59
2021/11/22 00:45:15;;;;;;;21.27;11.00;;;;;;;;;;4970114;28;20511;-60
2021/11/22 00:47:40;;;;;;;20.45;10.20;;;;;;;;;;4953157;28;20052;-60
2021/11/22 00:50:06;;;;;;;23.50;11.43;;;;;;;;;;4970879;28;20448;-59
2021/11/22 00:52:32;;;;;;;19.80;10.45;;;;;;;;;;4970436;28;20360;-59
2021/11/22 00:54:57;;;;;;;18.83;10.60;;;;;;;;;;4970719;28;20029;-60
2021/11/22 00:57:22;;;;;;;22.02;11.13;;;;;;;;;;4970415;28;20037;-58
2021/11/22 00:59:48;;;;;;;20.25;9.70;;;;;;;;;;4970774;28;20530;-59
2021/11/22 01:02:13;;;;;;;23.50;10.85;;;;;;;;;;4970196;28;20376;-59
2021/11/22 01:04:39;;;;;;;18.50;10.40;;;;;;;;;;4969565;28;20434;-61
2021/11/22 01:07:04;;;;;;;18.60;10.68;;;;;;;;;;4969841;28;20428;-59
2021/11/22 01:09:31;;;;;;;22.73;11.25;;;;;;;;;;4970084;28;20443;-59
2021/11/22 01:11:57;;;;;;;22.83;11.15;;;;;;;;;;4969794;28;20037;-59
2021/11/22 01:14:22;;;;;;;18.05;9.43;;;;;;;;;;4971250;28;20514;-60
2021/11/22 01:16:47;;;;;;;19.77;10.50;;;;;;;;;;4969955;28;20102;-60
2021/11/22 01:19:13;;;;;;;19.98;10.07;;;;;;;;;;4970087;28;20112;-59
2021/11/22 01:21:39;;;;;;;20.67;10.43;;;;;;;;;;4970475;28;20347;-60
2021/11/22 01:24:04;;;;;;;22.13;11.23;;;;;;;;;;4969936;28;20422;-59
2021/11/22 01:26:30;;;;;;;19.38;10.65;;;;;;;;;;4970345;28;20456;-59
2021/11/22 01:28:56;;;;;;;20.75;10.02;;;;;;;;;;4970118;28;20324;-59
2021/11/22 01:31:21;;;;;;;19.70;9.90;;;;;;;;;;4970095;28;20337;-59
2021/11/22 01:33:46;;;;;;;24.90;9.90;;;;;;;;;;4969756;28;20025;-58
2021/11/22 01:36:12;;;;;;;19.35;10.30;;;;;;;;;;4969524;28;20440;-59
2021/11/22 01:38:37;;;;;;;23.25;11.20;;;;;;;;;;4969960;28;20057;-61
2021/11/22 01:41:03;;;;;;;19.65;10.27;;;;;;;;;;4969443;28;20030;-59
2021/11/22 01:43:30;;;;;;;18.42;9.73;;;;;;;;;;4965748;28;20460;-59
2021/11/22 01:45:56;;;;;;;18.20;8.98;;;;;;;;;;4950033;28;20456;-59
2021/11/22 01:48:22;;;;;;;20.27;10.00;;;;;;;;;;4950062;28;20437;-59
2021/11/22 01:50:48;;;;;;;23.10;11.40;;;;;;;;;;4949982;28;20392;-59
2021/11/22 01:53:15;;;;;;;20.65;9.27;;;;;;;;;;4949853;28;20332;-59
2021/11/22 01:55:42;;;;;;;15.93;10.02;;;;;;;;;;4950473;28;20025;-59
2021/11/22 01:58:07;;;;;;;18.67;9.18;;;;;;;;;;4951176;28;20441;-59
2021/11/22 02:00:37;;;;;;;19.60;9.38;;;;;;;;;;4950314;28;20468;-59
2021/11/22 02:03:05;;;;;;;20.38;9.38;;;;;;;;;;4949783;28;20093;-63
2021/11/22 02:05:31;;;;;;;16.42;9.27;;;;;;;;;;4949827;28;20056;-59
2021/11/22 02:07:57;;;;;;;19.58;10.23;;;;;;;;;;4949759;28;20488;-59
2021/11/22 02:10:23;;;;;;;18.38;9.38;;;;;;;;;;4951178;28;20409;-59
2021/11/22 02:12:49;;;;;;;16.48;9.40;;;;;;;;;;4949451;28;20097;-59
2021/11/22 02:15:15;;;;;;;19.90;8.75;;;;;;;;;;4949722;28;20044;-60
2021/11/22 02:17:43;;;;;;;18.42;9.10;;;;;;;;;;4952298;28;20428;-59
2021/11/22 02:20:12;;;;;;;21.13;9.40;;;;;;;;;;4953754;28;20034;-60
2021/11/22 02:22:37;;;;;;;19.88;9.55;;;;;;;;;;4954187;28;20429;-59
2021/11/22 02:25:07;;;;;;;17.73;9.38;;;;;;;;;;4953695;28;20314;-60
2021/11/22 02:27:32;;;;;;;16.63;8.70;;;;;;;;;;4953649;28;20108;-59
2021/11/22 02:29:58;;;;;;;20.70;9.48;;;;;;;;;;4953333;28;20022;-59
2021/11/22 02:32:23;;;;;;;21.55;9.30;;;;;;;;;;4954748;28;20334;-59
2021/11/22 02:34:49;;;;;;;15.57;8.40;;;;;;;;;;4953377;28;20369;-62
2021/11/22 02:37:14;;;;;;;19.27;9.07;;;;;;;;;;4954751;28;20441;-59
2021/11/22 02:39:39;;;;;;;23.40;9.68;;;;;;;;;;4953430;28;20356;-59
2021/11/22 02:42:12;;;;;;;14.10;8.23;;;;;;;;;;4953402;28;20460;-60
2021/11/22 02:44:37;;;;;;;19.75;8.70;;;;;;;;;;4953557;28;20141;-59
2021/11/22 02:47:03;;;;;;;16.02;8.77;;;;;;;;;;4952887;28;20459;-61
2021/11/22 02:49:28;;;;;;;18.25;9.75;;;;;;;;;;4953396;28;20628;-59
2021/11/22 02:51:54;;;;;;;18.30;9.32;;;;;;;;;;4952749;28;20384;-60
2021/11/22 02:54:19;;;;;;;16.05;9.23;;;;;;;;;;4953412;28;20413;-59
2021/11/22 02:56:45;;;;;;;23.35;9.32;;;;;;;;;;4953571;28;20049;-60
2021/11/22 02:59:10;;;;;;;18.88;9.38;;;;;;;;;;4953127;28;20052;-60
2021/11/22 03:01:35;;;;;;;17.30;9.73;;;;;;;;;;4952617;28;20026;-59
2021/11/22 03:04:01;;;;;;;17.38;9.85;;;;;;;;;;4952746;28;20329;-59
2021/11/22 03:06:26;;;;;;;17.65;8.52;;;;;;;;;;4952688;28;20052;-59
2021/11/22 03:08:52;;;;;;;18.77;8.68;;;;;;;;;;4952895;28;20443;-60
2021/11/22 03:11:18;;;;;;;21.00;9.23;;;;;;;;;;4952699;28;20049;-59
2021/11/22 03:13:44;;;;;;;17.45;9.63;;;;;;;;;;4952521;28;20337;-59
2021/11/22 03:16:11;;;;;;;17.67;9.25;;;;;;;;;;4953560;28;20547;-59
2021/11/22 03:18:36;;;;;;;16.52;9.07;;;;;;;;;;4952828;28;20433;-60
2021/11/22 03:21:02;;;;;;;17.05;8.55;;;;;;;;;;4952420;28;20508;-59
2021/11/22 03:23:29;;;;;;;19.40;9.15;;;;;;;;;;4952750;28;20529;-59
2021/11/22 03:25:54;;;;;;;16.17;8.85;;;;;;;;;;4953839;28;20348;-60
2021/11/22 03:28:21;;;;;;;17.50;8.32;;;;;;;;;;4952238;28;20030;-59
2021/11/22 03:30:47;;;;;;;18.10;9.20;;;;;;;;;;4953794;28;20477;-60
2021/11/22 03:33:12;;;;;;;17.23;9.13;;;;;;;;;;4953840;28;20406;-59
2021/11/22 03:35:39;;;;;;;14.70;8.30;;;;;;;;;;4951907;28;20479;-59
2021/11/22 03:38:06;;;;;;;14.27;7.60;;;;;;;;;;4951970;28;20374;-59
2021/11/22 03:40:32;;;;;;;18.02;8.85;;;;;;;;;;4952377;28;20376;-59
2021/11/22 03:45:34;;;;;;;15.98;8.55;;;;;;;;;;4932554;28;20380;-59
2021/11/22 03:47:59;;;;;;;15.57;8.70;;;;;;;;;;4932982;28;20369;-59
2021/11/22 03:50:24;;;;;;;16.80;8.45;;;;;;;;;;4933985;28;20360;-59
2021/11/22 03:52:50;;;;;;;17.42;9.02;;;;;;;;;;4932746;28;20057;-60
2021/11/22 03:55:15;;;;;;;17.23;8.85;;;;;;;;;;4932943;28;20510;-59
2021/11/22 03:57:40;;;;;;;17.30;9.25;;;;;;;;;;4933325;28;20449;-60
2021/11/22 04:00:06;;;;;;;15.95;8.27;;;;;;;;;;4932868;28;20418;-59
2021/11/22 04:02:32;;;;;;;16.70;8.40;;;;;;;;;;4932339;28;20357;-59
2021/11/22 04:04:57;;;;;;;17.65;8.30;;;;;;;;;;4932237;28;20105;-60
2021/11/22 04:07:23;;;;;;;16.38;9.35;;;;;;;;;;4933099;28;20418;-59
2021/11/22 04:09:48;;;;;;;15.55;8.65;;;;;;;;;;4932119;28;20464;-59
2021/11/22 04:12:13;;;;;;;17.08;7.57;;;;;;;;;;4932093;28;20512;-62
2021/11/22 04:14:39;;;;;;;16.73;8.27;;;;;;;;;;4932104;28;20129;-59
2021/11/22 04:17:04;;;;;;;18.33;9.05;;;;;;;;;;4931959;28;20473;-60
2021/11/22 04:19:30;;;;;;;13.50;7.93;;;;;;;;;;4932200;28;20473;-60
2021/11/22 04:21:55;;;;;;;19.40;8.70;;;;;;;;;;4932006;28;20023;-59
2021/11/22 04:24:21;;;;;;;19.30;9.10;;;;;;;;;;4932240;28;20034;-59
2021/11/22 04:26:46;;;;;;;16.02;8.73;;;;;;;;;;4931950;28;20318;-59
2021/11/22 04:29:13;;;;;;;19.05;8.95;;;;;;;;;;4932067;28;20473;-59
2021/11/22 04:31:38;;;;;;;16.80;8.57;;;;;;;;;;4914620;28;20575;-62
2021/11/22 04:34:04;;;;;;;17.83;9.35;;;;;;;;;;4931979;28;20517;-59
2021/11/22 04:36:29;;;;;;;15.75;8.52;;;;;;;;;;4932699;28;20471;-59
2021/11/22 04:38:54;;;;;;;16.23;7.97;;;;;;;;;;4932622;28;20070;-59
2021/11/22 04:41:21;;;;;;;18.20;8.48;;;;;;;;;;4931531;28;20381;-59
2021/11/22 04:43:46;;;;;;;17.58;8.48;;;;;;;;;;4937293;28;20046;-59
2021/11/22 04:46:12;;;;;;;15.68;7.68;;;;;;;;;;4950627;28;20440;-60
2021/11/22 04:48:37;;;;;;;16.83;9.32;;;;;;;;;;4950847;28;20413;-59
2021/11/22 04:51:03;;;;;;;18.02;8.25;;;;;;;;;;4951090;28;20449;-59
2021/11/22 04:53:28;;;;;;;19.17;8.88;;;;;;;;;;4950879;28;20693;-59
2021/11/22 04:55:54;;;;;;;19.02;8.25;;;;;;;;;;4950906;28;20321;-59
2021/11/22 04:58:19;;;;;;;18.08;8.48;;;;;;;;;;4951604;28;20397;-59
2021/11/22 05:00:44;;;;;;;18.23;8.35;;;;;;;;;;4951300;28;20444;-60
2021/11/22 05:03:11;;;;;;;15.80;8.07;;;;;;;;;;4952647;28;20025;-59
2021/11/22 05:05:36;;;;;;;19.58;8.98;;;;;;;;;;4950504;28;20401;-59
2021/11/22 05:08:06;;;;;;;18.92;9.23;;;;;;;;;;4950859;28;20405;-59
2021/11/22 05:10:36;;;;;;;16.63;8.63;;;;;;;;;;4951804;28;20026;-60
2021/11/22 05:13:04;;;;;;;17.90;8.68;;;;;;;;;;4952242;28;20503;-59
2021/11/22 05:15:30;;;;;;;19.25;8.13;;;;;;;;;;4950411;28;20025;-59
2021/11/22 05:17:55;;;;;;;18.65;9.43;;;;;;;;;;4951321;28;20049;-60
2021/11/22 05:20:21;;;;;;;17.38;8.50;;;;;;;;;;4950242;28;20326;-60
2021/11/22 05:22:46;;;;;;;16.27;8.30;;;;;;;;;;4950012;28;20448;-59
2021/11/22 05:25:12;;;;;;;18.13;7.93;;;;;;;;;;4950490;28;20468;-59
2021/11/22 05:27:37;;;;;;;24.52;10.50;;;;;;;;;;4950488;28;20057;-59
2021/11/22 05:30:03;;;;;;;16.98;9.02;;;;;;;;;;4950677;28;20048;-60
2021/11/22 05:32:28;;;;;;;16.48;8.57;;;;;;;;;;4950576;28;20612;-59
2021/11/22 05:34:56;;;;;;;16.58;8.20;;;;;;;;;;4951247;28;20304;-59
2021/11/22 05:37:21;;;;;;;20.05;9.55;;;;;;;;;;4950262;28;20057;-60
2021/11/22 05:39:47;;;;;;;17.77;9.48;;;;;;;;;;4949818;28;20445;-59
2021/11/22 05:42:14;;;;;;;18.42;8.80;;;;;;;;;;4950397;28;20053;-59
2021/11/22 05:44:39;;;;;;;13.85;7.80;;;;;;;;;;4949457;28;20085;-59
2021/11/22 05:47:07;;;;;;;18.98;8.85;;;;;;;;;;4950119;28;20132;-60
2021/11/22 05:49:35;;;;;;;18.75;9.65;;;;;;;;;;4949743;28;20449;-60
2021/11/22 05:52:01;;;;;;;17.98;9.20;;;;;;;;;;4949241;28;20089;-59
2021/11/22 05:54:26;;;;;;;18.23;9.07;;;;;;;;;;4950242;28;20413;-59
2021/11/22 05:56:52;;;;;;;20.52;9.77;;;;;;;;;;4949607;28;20097;-60
2021/11/22 05:59:18;;;;;;;19.17;8.85;;;;;;;;;;4950299;28;20419;-59
2021/11/22 06:01:43;;;;;;;19.30;8.23;;;;;;;;;;4950077;28;20451;-59
2021/11/22 06:04:09;;;;;;;20.42;9.75;;;;;;;;;;4949932;28;20457;-59
2021/11/22 06:06:34;;;;;;;19.55;8.13;;;;;;;;;;4949460;28;20453;-59
2021/11/22 06:08:59;;;;;;;19.58;9.38;;;;;;;;;;4950090;28;20523;-59
2021/11/22 06:11:26;;;;;;;18.48;9.48;;;;;;;;;;4950352;28;20337;-60
2021/11/22 06:13:51;;;;;;;18.40;9.43;;;;;;;;;;4949785;28;20369;-60
2021/11/22 06:16:16;;;;;;;17.75;9.18;;;;;;;;;;4950332;28;20057;-58
2021/11/22 06:18:42;;;;;;;16.38;8.88;;;;;;;;;;4949391;28;20026;-60
2021/11/22 06:21:07;;;;;;;16.15;8.80;;;;;;;;;;4949282;28;20030;-62
2021/11/22 06:23:33;;;;;;;16.98;8.00;;;;;;;;;;4949633;28;20377;-59
2021/11/22 06:25:58;;;;;;;18.83;9.05;;;;;;;;;;4949491;28;20100;-60
2021/11/22 06:28:25;;;;;;;20.48;10.02;;;;;;;;;;4949737;28;20349;-59
2021/11/22 06:30:50;;;;;;;21.38;10.65;;;;;;;;;;4949643;28;20365;-59
2021/11/22 06:33:15;;;;;;;18.73;9.38;;;;;;;;;;4950859;28;20029;-60
2021/11/22 06:35:41;;;;;;;20.77;9.75;;;;;;;;;;4949417;28;20137;-59
2021/11/22 06:38:06;;;;;;;20.42;10.10;;;;;;;;;;4949350;28;20433;-59
2021/11/22 06:40:32;;;;;;;16.33;9.00;;;;;;;;;;4949619;28;20033;-60
2021/11/22 06:42:58;;;;;;;18.50;9.23;;;;;;;;;;4949865;28;20030;-59
2021/11/22 06:45:23;;;;;;;18.40;8.50;;;;;;;;;;4948914;28;20453;-61
2021/11/22 06:47:48;;;;;;;21.17;9.65;;;;;;;;;;4949861;28;20410;-59
2021/11/22 06:50:15;;;;;;;14.30;8.48;;;;;;;;;;4949572;28;20368;-59
2021/11/22 06:52:41;;;;;;;19.25;9.45;;;;;;;;;;4948937;28;20361;-60
2021/11/22 06:55:07;;;;;;;20.95;10.77;;;;;;;;;;4949422;28;20361;-60
2021/11/22 06:57:32;;;;;;;22.58;9.20;;;;;;;;;;4950153;28;20353;-60
2021/11/22 06:59:58;;;;;;;19.13;8.80;;;;;;;;;;4949949;28;20344;-59
2021/11/22 07:02:24;;;;;;;15.77;8.18;;;;;;;;;;4950053;28;20448;-59
2021/11/22 07:04:50;;;;;;;14.43;7.95;;;;;;;;;;4951444;28;20029;-60
2021/11/22 07:07:16;;;;;;;15.45;8.15;;;;;;;;;;4952636;28;20436;-59
2021/11/22 07:09:42;;;;;;;14.85;8.02;;;;;;;;;;4952930;28;20393;-60
2021/11/22 07:12:08;;;;;;;19.00;8.65;;;;;;;;;;4953291;28;20018;-59
2021/11/22 07:14:36;;;;;;;18.13;9.38;;;;;;;;;;4953093;28;20429;-64
2021/11/22 07:17:02;;;;;;;17.38;9.55;;;;;;;;;;4953114;28;20093;-59
2021/11/22 07:19:27;;;;;;;17.48;8.98;;;;;;;;;;4952458;28;20173;-59
2021/11/22 07:21:53;;;;;;;18.15;8.68;;;;;;;;;;4952637;28;20388;-59
2021/11/22 07:24:19;;;;;;;17.05;7.80;;;;;;;;;;4952016;28;20504;-59
2021/11/22 07:26:44;;;;;;;15.43;8.77;;;;;;;;;;4952601;28;20487;-59
2021/11/22 07:29:10;;;;;;;15.10;8.40;;;;;;;;;;4953075;28;20428;-59
2021/11/22 07:31:36;;;;;;;14.70;8.60;;;;;;;;;;4952030;28;20085;-59
2021/11/22 07:34:02;;;;;;;14.52;7.82;;;;;;;;;;4952050;28;20492;-59
2021/11/22 07:36:27;;;;;;;18.95;8.82;;;;;;;;;;4952257;28;20449;-59
2021/11/22 07:38:53;;;;;;;15.93;8.10;;;;;;;;;;4952977;28;20433;-60
2021/11/22 07:41:19;;;;;;;16.05;8.10;;;;;;;;;;4952307;28;20181;-59
2021/11/22 07:43:45;;;;;;;14.75;7.82;;;;;;;;;;4951530;28;20053;-59
2021/11/22 07:46:10;;;;;;;18.42;8.57;;;;;;;;;;4952009;28;20038;-59
2021/11/22 07:48:35;;;;;;;17.75;8.07;;;;;;;;;;4951705;28;20341;-60
2021/11/22 07:51:02;;;;;;;16.05;7.75;;;;;;;;;;4952262;28;20337;-59
2021/11/22 07:53:28;;;;;;;15.23;7.20;;;;;;;;;;4952578;28;20117;-59
2021/11/22 07:55:54;;;;;;;18.48;8.50;;;;;;;;;;4951896;28;20464;-57
2021/11/22 07:58:19;;;;;;;15.05;7.68;;;;;;;;;;4952822;28;20433;-58
2021/11/22 08:00:45;;;;;;;16.83;8.23;;;;;;;;;;4951886;28;20089;-58
2021/11/22 08:03:10;;;;;;;17.25;7.75;;;;;;;;;;4952000;28;20420;-59
2021/11/22 08:05:35;;;;;;;15.23;7.55;;;;;;;;;;4951578;28;20034;-57
2021/11/22 08:08:02;;;;;;;14.50;6.97;;;;;;;;;;4951922;28;20503;-59
2021/11/22 08:10:29;;;;;;;16.27;7.43;;;;;;;;;;4971383;28;20060;-57
2021/11/22 08:12:58;;;;;;;12.95;7.30;;;;;;;;;;4972068;28;20464;-56
2021/11/22 08:15:25;;;;;;;16.75;7.47;;;;;;;;;;4970818;28;20344;-57
2021/11/22 08:17:51;;;;;;;14.10;6.32;;;;;;;;;;4971917;28;20052;-58
2021/11/22 08:20:18;;;;;;;14.75;8.15;;;;;;;;;;4986249;28;20244;-57
2021/11/22 08:22:45;;;;;;;13.77;7.10;;;;;;;;;;4970696;28;20498;-59
2021/11/22 08:25:12;;;;;;;11.80;6.40;;;;;;;;;;4972328;28;20424;-57
2021/11/22 08:27:39;;;;;;;13.20;6.68;;;;;;;;;;4970970;28;20440;-61
2021/11/22 08:30:10;;;;;;;13.05;6.75;;;;;;;;;;4971185;28;20136;-58
2021/11/22 08:32:37;;;;;;;12.05;6.50;;;;;;;;;;4971069;28;20420;-57
2021/11/22 08:35:03;;;;;;;10.85;6.22;;;;;;;;;;4970781;28;20025;-57
2021/11/22 08:37:28;;;;;;;12.82;6.63;;;;;;;;;;4971403;28;20471;-61
2021/11/22 08:39:54;;;;;;;11.85;5.88;;;;;;;;;;4971501;28;20454;-58
2021/11/22 08:42:19;;;;;;;7.90;5.10;;;;;;;;;;4970483;28;20393;-60
2021/11/22 08:44:45;;;;;;;14.63;6.75;;;;;;;;;;4969883;28;20436;-58
2021/11/22 08:47:12;;;;;;;11.65;5.93;;;;;;;;;;4970727;28;20102;-59
2021/11/22 08:49:38;;;;;;;10.20;5.63;;;;;;;;;;4970142;28;20460;-60
2021/11/22 08:52:04;;;;;;;11.70;5.53;;;;;;;;;;4970359;28;20464;-57
2021/11/22 08:54:29;;;;;;;12.48;5.63;;;;;;;;;;4970522;28;20463;-58
2021/11/22 08:56:56;;;;;;;13.95;5.53;;;;;;;;;;4970544;28;20446;-58
2021/11/22 08:59:21;;;;;;;9.35;4.97;;;;;;;;;;4970346;28;20340;-59
2021/11/22 09:01:46;;;;;;;10.48;6.10;;;;;;;;;;4970407;28;20064;-60
2021/11/22 09:04:12;;;;;;;9.70;4.85;;;;;;;;;;4970227;28;20422;-60
2021/11/22 09:06:37;;;;;;;8.90;5.28;;;;;;;;;;4970564;28;20526;-59
2021/11/22 09:09:04;;;;;;;11.65;6.00;;;;;;;;;;4971007;28;20371;-60
2021/11/22 09:11:30;;;;;;;10.50;5.97;;;;;;;;;;4970011;28;20318;-59
2021/11/22 09:13:55;;;;;;;9.90;5.88;;;;;;;;;;4970378;28;20321;-59
2021/11/22 09:16:27;;;;;;;13.25;5.88;;;;;;;;;;4970016;28;20448;-59
2021/11/22 09:18:59;;;;;;;12.20;5.85;;;;;;;;;;4970155;28;20110;-59
2021/11/22 09:21:26;;;;;;;14.15;5.55;;;;;;;;;;4969742;28;20451;-58
2021/11/22 09:23:52;;;;;;;11.73;5.53;;;;;;;;;;4969762;28;20159;-59
2021/11/22 09:26:17;;;;;;;14.40;5.55;;;;;;;;;;4969977;28;20495;-59
2021/11/22 09:28:44;;;;;;;14.57;6.15;;;;;;;;;;4969682;28;20356;-59
2021/11/22 09:31:10;;;;;;;11.32;6.07;;;;;;;;;;4970036;28;20344;-58
2021/11/22 09:33:36;;;;;;;12.98;5.70;;;;;;;;;;4936492;28;20122;-59
2021/11/22 09:36:01;;;;;;;12.55;6.15;;;;;;;;;;4969605;28;20041;-59
2021/11/22 09:38:27;;;;;;;13.98;6.00;;;;;;;;;;4970085;28;20360;-59
2021/11/22 09:40:53;;;;;;;11.43;5.82;;;;;;;;;;4969898;28;20390;-59
2021/11/22 09:43:18;;;;;;;8.82;5.45;;;;;;;;;;4970317;28;20121;-59
2021/11/22 09:45:45;;;;;;;14.18;5.38;;;;;;;;;;4969544;28;20025;-59
2021/11/22 09:48:14;;;;;;;12.10;4.60;;;;;;;;;;4969123;28;20464;-59
2021/11/22 09:50:40;;;;;;;13.48;5.00;;;;;;;;;;4969756;28;20407;-59
2021/11/22 09:53:06;;;;;;;12.73;5.85;;;;;;;;;;4968960;28;20124;-61
2021/11/22 09:55:32;;;;;;;12.98;5.15;;;;;;;;;;4969072;28;20022;-59
2021/11/22 09:58:00;;;;;;;11.57;5.20;;;;;;;;;;4970084;28;20060;-59
2021/11/22 10:00:35;;;;;;;12.77;5.43;;;;;;;;;;4969228;28;20448;-59
2021/11/22 10:03:01;;;;;;;10.38;4.75;;;;;;;;;;4969071;28;20494;-60
2021/11/22 10:05:31;;;;;;;9.93;4.97;;;;;;;;;;4969751;28;20437;-59
2021/11/22 10:08:14;;;;;;;10.02;4.65;;;;;;;;;;4969643;28;20344;-59
2021/11/22 10:10:58;;;;;;;8.35;4.82;;;;;;;;;;4968974;28;20408;-59
2021/11/22 10:13:29;;;;;;;9.85;4.72;;;;;;;;;;4969453;28;20322;-59
2021/11/22 10:16:01;;;;;;;9.00;4.63;;;;;;;;;;4969085;28;20461;-61
2021/11/22 10:18:31;;;;;;;15.13;5.15;;;;;;;;;;4968974;28;20033;-59
2021/11/22 10:21:04;;;;;;;9.30;5.05;;;;;;;;;;4970699;28;20048;-59
2021/11/22 10:23:30;;;;;;;12.48;5.00;;;;;;;;;;4968837;28;20348;-60
2021/11/22 10:25:57;;;;;;;9.52;4.50;;;;;;;;;;4969179;28;20022;-58
2021/11/22 10:28:27;;;;;;;14.48;5.68;;;;;;;;;;4969765;28;20352;-59
2021/11/22 10:30:58;;;;;;;10.18;4.70;;;;;;;;;;4970017;28;20341;-59
2021/11/22 10:33:29;;;;;;;8.80;3.95;;;;;;;;;;4969246;28;20460;-59
2021/11/22 10:36:00;;;;;;;11.05;5.15;;;;;;;;;;4968532;28;20573;-59
2021/11/22 10:38:27;;;;;;;7.72;4.30;;;;;;;;;;4972049;28;20436;-59
2021/11/22 10:41:00;;;;;;;9.30;4.60;;;;;;;;;;4972648;28;20030;-59
2021/11/22 10:43:37;;;;;;;11.93;4.85;;;;;;;;;;4972678;28;20413;-60
2021/11/22 10:46:08;;;;;;;8.85;4.05;;;;;;;;;;4972536;28;20482;-59
2021/11/22 10:48:34;;;;;;;8.98;4.22;;;;;;;;;;4987092;28;20379;-59
2021/11/22 10:51:08;;;;;;;7.70;3.63;;;;;;;;;;4972688;28;20340;-58
2021/11/22 10:53:45;;;;;;;9.18;4.63;;;;;;;;;;4972246;28;20503;-60
2021/11/22 10:56:13;;;;;;;8.82;5.28;;;;;;;;;;4972657;28;20365;-58
2021/11/22 10:58:48;;;;;;;7.88;4.32;;;;;;;;;;4972595;28;20546;-59
2021/11/22 11:01:15;;;;;;;10.10;4.63;;;;;;;;;;4972549;28;20125;-59
2021/11/22 11:03:48;;;;;;;8.32;4.07;;;;;;;;;;4971853;28;20399;-60
2021/11/22 11:06:13;;;;;;;8.90;3.92;;;;;;;;;;4972464;28;20460;-59
2021/11/22 11:08:39;;;;;;;7.57;4.13;;;;;;;;;;4972266;28;20435;-59
2021/11/22 11:11:12;;;;;;;8.32;4.55;;;;;;;;;;4972436;28;20424;-59
2021/11/22 11:13:43;;;;;;;25.80;4.93;;;;;;;;;;4990159;28;20466;-59
2021/11/22 11:16:10;;;;;;;10.25;4.55;;;;;;;;;;4991857;28;20332;-58
2021/11/22 11:18:35;;;;;;;9.50;4.22;;;;;;;;;;4983624;28;20562;-61
2021/11/22 11:21:01;;;;;;;19.95;4.47;;;;;;;;;;4990600;28;20444;-55
2021/11/22 11:23:27;;;;;;;11.70;4.43;;;;;;;;;;4970428;28;20761;-55
2021/11/22 11:25:53;;;;;;;14.57;4.70;;;;;;;;;;4990113;28;20527;-64
2021/11/22 11:28:18;;;;;;;11.57;4.55;;;;;;;;;;4991006;28;20336;-52
2021/11/22 11:30:43;;;;;;;11.68;5.13;;;;;;;;;;4990018;28;20363;-59
2021/11/22 11:33:09;;;;;;;14.38;4.80;;;;;;;;;;4990877;28;20439;-60
2021/11/22 11:35:35;;;;;;;11.60;4.43;;;;;;;;;;4990333;28;20131;-57
2021/11/22 11:38:45;;;;;;;13.27;4.88;;;;;;;;;;4990913;28;20447;-60
2021/11/22 11:41:22;;;;;;;69.32;33.40;;;;;;;;;;4985256;28;20534;-60
2021/11/22 11:44:10;;;;;;;73.97;33.42;;;;;;;;;;4969167;28;20453;-61
2021/11/22 11:46:56;;;;;;;80.78;34.60;;;;;;;;;;4953060;28;20033;-60
2021/11/22 11:49:31;;;;;;;55.05;27.92;;;;;;;;;;4968136;28;20575;-59
2021/11/22 11:51:56;;;;;;;55.13;19.52;;;;;;;;;;4970919;28;20368;-61
2021/11/22 11:54:27;;;;;;;46.95;15.65;;;;;;;;;;4969935;28;20430;-68
2021/11/22 11:57:04;;;;;;;44.53;17.20;;;;;;;;;;4969817;28;20356;-62
2021/11/22 11:59:40;;;;;;;47.75;16.52;;;;;;;;;;4967623;28;20733;-66
2021/11/22 12:02:06;;;;;;;40.22;16.50;;;;;;;;;;4971931;28;20522;-57
2021/11/22 12:04:50;;;;;;;43.40;15.40;;;;;;;;;;4970619;28;20468;-59
2021/11/22 12:07:40;;;;;;;33.45;14.50;;;;;;;;;;4969506;28;20497;-56
2021/11/22 12:10:13;;;;;;;32.15;13.38;;;;;;;;;;4967736;28;20057;-60
2021/11/22 12:12:42;;;;;;;30.08;13.95;;;;;;;;;;4970483;28;20357;-60
2021/11/22 12:15:14;;;;;;;;;;;;;;;;;;4970557;28;20048;-60
2021/11/22 12:17:40;;;;;;;25.55;13.77;;;;;;;;;;4971552;28;20308;-60
2021/11/22 12:20:34;;;;;;;29.13;12.75;;;;;;;;;;4969206;28;20306;-60
2021/11/22 12:23:09;;;;;;;41.88;13.00;;;;;;;;;;4967462;28;20468;-60
2021/11/22 12:25:46;;;;;;;27.58;13.23;;;;;;;;;;4969313;28;20380;-62
2021/11/22 12:28:34;;;;;;;27.17;12.50;;;;;;;;;;4966807;28;20463;-61
2021/11/22 12:31:16;;;;;;;47.57;15.80;;;;;;;;;;4965790;28;20412;-59
2021/11/22 12:33:49;;;;;;;28.35;12.10;;;;;;;;;;4969090;28;20514;-56
2021/11/22 12:36:15;;;;;;;28.38;11.70;;;;;;;;;;4955990;28;20420;-57
2021/11/22 12:38:40;;;;;;;26.67;12.85;;;;;;;;;;4968998;28;20471;-58
2021/11/22 12:41:08;;;;;;;37.60;11.82;;;;;;;;;;4969067;28;20444;-57
2021/11/22 12:43:48;;;;;;;23.05;12.10;;;;;;;;;;4972171;28;20022;-57
2021/11/22 12:46:16;;;;;;;33.63;10.27;;;;;;;;;;4989688;28;20654;-59
2021/11/22 12:48:44;;;;;;;24.43;10.97;;;;;;;;;;4989542;28;20432;-58
2021/11/22 12:51:15;;;;;;;28.98;11.18;;;;;;;;;;4986691;28;20103;-61
2021/11/22 12:54:17;;;;;;;30.48;10.18;;;;;;;;;;4983416;28;20507;-66
2021/11/22 12:56:42;;;;;;;21.15;9.93;;;;;;;;;;4921669;28;20464;-60
2021/11/22 12:59:19;;;;;;;33.47;10.13;;;;;;;;;;4960024;28;20375;-61
2021/11/22 13:01:45;;;;;;;29.02;11.95;;;;;;;;;;4969555;28;20467;-63
2021/11/22 13:04:10;;;;;;;33.10;10.40;;;;;;;;;;4968962;28;20376;-59
2021/11/22 13:06:39;;;;;;;31.27;10.07;;;;;;;;;;4969016;28;20029;-58
2021/11/22 13:09:11;;;;;;;17.27;9.02;;;;;;;;;;4968046;28;20474;-58
2021/11/22 13:11:51;;;;;;;22.58;10.25;;;;;;;;;;4988002;28;20443;-59
2021/11/22 13:14:22;;;;;;;22.40;9.30;;;;;;;;;;4987429;28;20340;-60
2021/11/22 13:16:50;;;;;;;25.88;10.23;;;;;;;;;;4988709;28;20348;-61
2021/11/22 13:19:16;;;;;;;23.38;9.85;;;;;;;;;;4988732;28;20375;-59
2021/11/22 13:21:52;;;;;;;23.63;10.60;;;;;;;;;;4989571;28;20469;-59
2021/11/22 13:24:24;;;;;;;35.83;10.52;;;;;;;;;;4987242;28;20355;-62
2021/11/22 13:26:50;;;;;;;15.13;9.57;;;;;;;;;;4988604;28;20131;-60
2021/11/22 13:29:21;;;;;;;18.73;8.95;;;;;;;;;;4988793;28;20436;-61
2021/11/22 13:31:50;;;;;;;18.85;9.10;;;;;;;;;;4989432;28;20375;-59
2021/11/22 13:34:23;;;;;;;22.98;10.63;;;;;;;;;;4986948;28;20379;-60
2021/11/22 13:36:51;;;;;;;35.13;10.20;;;;;;;;;;4988354;28;20505;-62
2021/11/22 13:39:26;;;;;;;36.83;10.03;;;;;;;;;;4987255;28;20376;-61
2021/11/22 13:42:00;;;;;;;25.63;9.23;;;;;;;;;;4985892;28;20448;-63
2021/11/22 13:44:28;;;;;;;23.88;9.77;;;;;;;;;;4989546;28;20341;-68
2021/11/22 13:47:05;;;;;;;22.70;8.60;;;;;;;;;;4993274;28;20371;-64
2021/11/22 13:49:30;;;;;;;25.60;7.88;;;;;;;;;;5003132;28;20373;-63
2021/11/22 13:51:56;;;;;;;57.50;11.32;;;;;;;;;;4995187;28;20040;-60
2021/11/22 13:54:24;;;;;;;32.30;10.35;;;;;;;;;;5003886;28;20331;-61
2021/11/22 13:56:58;;;;;;;31.58;10.20;;;;;;;;;;5005904;28;20505;-70
2021/11/22 13:59:29;;;;;;;21.13;8.48;;;;;;;;;;4987782;28;20352;-61
2021/11/22 14:02:00;;;;;;;24.45;9.95;;;;;;;;;;4988345;28;20482;-63
2021/11/22 14:04:32;;;;;;;21.50;9.00;;;;;;;;;;4987908;28;20037;-64
2021/11/22 14:07:06;;;;;;;23.50;7.65;;;;;;;;;;4987491;28;20056;-63
2021/11/22 14:09:31;;;;;;;18.75;8.48;;;;;;;;;;4987025;28;20080;-64
2021/11/22 14:11:58;;;;;;;16.88;8.95;;;;;;;;;;4933435;28;20037;-61
2021/11/22 14:14:28;;;;;;;13.48;5.82;;;;;;;;;;5002775;28;20428;-60
2021/11/22 14:16:58;;;;;;;12.07;4.35;;;;;;;;;;5001293;28;20056;-62
2021/11/22 14:19:25;;;;;;;9.05;4.18;;;;;;;;;;5000984;28;20448;-60
2021/11/22 14:21:51;;;;;;;9.77;3.72;;;;;;;;;;5000553;28;20521;-59
2021/11/22 14:24:21;;;;;;;10.15;3.72;;;;;;;;;;4939854;28;20443;-60
2021/11/22 14:26:55;;;;;;;11.93;4.13;;;;;;;;;;4990477;28;20100;-59
2021/11/22 14:29:25;;;;;;;9.25;4.57;;;;;;;;;;4992109;28;20485;-60
2021/11/22 14:31:52;;;;;;;12.10;4.32;;;;;;;;;;4992113;28;20428;-60
2021/11/22 14:34:20;;;;;;;9.18;4.43;;;;;;;;;;4991694;28;20029;-59